Time;durP1;ratioP1;P1;durP2;ratioP2;P2;SDS_P1;SDS_P2;PMS_P1;PMS_P2;Temp;Humidity;BMP_temperature;BMP_pressure;BME280_temperature;BME280_humidity;BME280_pressure;Samples;Min_cycle;Max_cycle;Signal;HPM_P1;HPM_P2
2022/11/05 00:11:06;;;;;;;0.50;0.50;;;9.90;99.90;;;;;;5013593;28;20208;-94
2022/11/05 00:17:05;;;;;;;0.60;0.60;;;9.90;99.90;;;;;;5035000;28;20164;-95
2022/11/05 00:19:39;;;;;;;0.53;0.53;;;9.90;99.90;;;;;;5036355;28;20186;-95
2022/11/05 00:25:18;;;;;;;0.60;0.60;;;9.80;99.90;;;;;;5034696;28;20184;-94
2022/11/05 00:27:52;;;;;;;0.50;0.50;;;9.80;99.90;;;;;;5030097;28;20268;-94
2022/11/05 00:30:23;;;;;;;0.70;0.70;;;9.90;99.90;;;;;;4991094;28;20217;-95
2022/11/05 00:32:52;;;;;;;0.60;0.60;;;9.90;99.90;;;;;;5062610;22;20238;-94
2022/11/05 00:35:45;;;;;;;0.40;0.40;;;9.80;99.90;;;;;;5090625;22;20270;-95
2022/11/05 00:38:35;;;;;;;0.67;0.67;;;9.80;99.90;;;;;;5048230;28;20182;-95
2022/11/05 00:41:04;;;;;;;0.63;0.63;;;9.80;99.90;;;;;;5072498;22;20234;-96
2022/11/05 00:46:15;;;;;;;0.57;0.57;;;9.80;99.90;;;;;;5064791;28;20198;-96
2022/11/05 00:51:28;;;;;;;0.33;0.33;;;9.90;99.90;;;;;;5062262;28;20218;-95
2022/11/05 00:53:57;;;;;;;0.63;0.60;;;9.90;99.90;;;;;;5043782;28;20169;-95
2022/11/05 00:56:24;;;;;;;0.70;0.70;;;9.90;99.90;;;;;;5138814;22;20243;-94
2022/11/05 00:59:10;;;;;;;0.40;0.40;;;9.90;99.90;;;;;;5075237;28;20211;-95
2022/11/05 01:01:46;;;;;;;0.40;0.40;;;9.90;99.90;;;;;;5073964;22;20236;-95
2022/11/05 01:04:12;;;;;;;0.50;0.50;;;9.90;99.90;;;;;;5044787;28;20184;-94
2022/11/05 01:07:03;;;;;;;0.40;0.40;;;10.00;99.90;;;;;;5047664;22;20681;-96
2022/11/05 01:09:35;;;;;;;1.03;0.40;;;10.00;99.90;;;;;;5038718;28;20219;-95
2022/11/05 01:12:15;;;;;;;0.40;0.40;;;10.10;99.90;;;;;;5045631;28;20218;-95
2022/11/05 01:14:42;;;;;;;0.50;0.50;;;10.10;99.90;;;;;;5065821;22;20227;-93
2022/11/05 01:17:11;;;;;;;0.60;0.60;;;10.00;99.90;;;;;;5052836;28;20198;-96
2022/11/05 01:19:39;;;;;;;0.90;0.70;;;10.00;99.90;;;;;;5042117;28;20214;-95
2022/11/05 01:22:11;;;;;;;0.63;0.63;;;10.00;99.90;;;;;;5053852;22;20256;-95
2022/11/05 01:24:46;;;;;;;0.70;0.70;;;10.00;99.90;;;;;;5063100;28;20197;-96
2022/11/05 01:27:15;;;;;;;0.50;0.50;;;10.00;99.90;;;;;;5065377;28;20186;-96
2022/11/05 01:29:42;;;;;;;0.97;0.60;;;10.00;99.90;;;;;;5048711;28;20183;-95
2022/11/05 01:35:08;;;;;;;0.50;0.50;;;10.00;99.90;;;;;;5061137;28;20185;-95
2022/11/05 01:37:35;;;;;;;0.60;0.60;;;10.00;99.90;;;;;;5072343;28;20201;-96
2022/11/05 01:40:13;;;;;;;0.47;0.47;;;10.00;99.90;;;;;;5044235;23;20251;-94
2022/11/05 01:42:43;;;;;;;0.60;0.60;;;10.00;99.90;;;;;;4969435;28;20264;-95
2022/11/05 01:48:30;;;;;;;0.50;0.50;;;10.00;99.90;;;;;;5083705;22;20218;-93
2022/11/05 01:51:21;;;;;;;0.40;0.40;;;10.10;99.90;;;;;;5059930;28;20222;-94
2022/11/05 01:54:12;;;;;;;0.43;0.43;;;10.10;99.90;;;;;;5051819;28;20189;-92
2022/11/05 01:56:52;;;;;;;0.50;0.50;;;10.10;99.90;;;;;;5039816;28;20194;-92
2022/11/05 01:59:40;;;;;;;0.40;0.40;;;10.10;99.90;;;;;;5055309;28;20183;-92
2022/11/05 02:02:08;;;;;;;0.60;0.60;;;10.10;99.90;;;;;;5056101;28;20225;-93
2022/11/05 02:04:49;;;;;;;0.50;0.50;;;10.10;99.90;;;;;;5054634;28;20175;-93
2022/11/05 02:07:30;;;;;;;0.50;0.50;;;10.10;99.90;;;;;;5077821;22;20233;-93
2022/11/05 02:10:13;;;;;;;0.40;0.40;;;10.10;99.90;;;;;;5057639;28;20275;-94
2022/11/05 02:12:51;;;;;;;0.50;0.50;;;10.10;99.90;;;;;;5060142;28;20176;-94
2022/11/05 02:15:45;;;;;;;0.40;0.40;;;10.20;99.90;;;;;;5035845;28;20186;-92
2022/11/05 02:18:39;;;;;;;0.50;0.50;;;10.10;99.90;;;;;;5055162;22;20233;-95
2022/11/05 02:21:28;;;;;;;0.40;0.40;;;10.10;99.90;;;;;;5070226;28;20534;-94
2022/11/05 02:24:20;;;;;;;0.30;0.30;;;10.10;99.90;;;;;;5052501;28;20178;-92
2022/11/05 02:27:13;;;;;;;0.20;0.20;;;10.20;99.90;;;;;;5051470;28;20246;-94
2022/11/05 02:30:21;;;;;;;0.50;0.50;;;10.20;99.90;;;;;;5054097;28;20245;-93
2022/11/05 02:33:10;;;;;;;0.20;0.20;;;10.10;99.90;;;;;;5049974;28;20206;-95
2022/11/05 02:36:18;;;;;;;0.30;0.30;;;10.20;99.90;;;;;;5065104;28;20186;-94
2022/11/05 02:39:00;;;;;;;0.33;0.33;;;10.20;99.90;;;;;;5046901;28;20590;-96
2022/11/05 02:41:56;;;;;;;1.03;0.40;;;10.20;99.90;;;;;;5047277;28;20185;-94
2022/11/05 02:45:04;;;;;;;0.30;0.30;;;10.30;99.90;;;;;;5041393;23;20234;-93
2022/11/05 02:48:17;;;;;;;0.40;0.40;;;10.30;99.90;;;;;;5051601;28;20192;-93
2022/11/05 02:51:31;;;;;;;0.40;0.40;;;10.30;99.90;;;;;;5123778;22;20249;-95
2022/11/05 02:54:40;;;;;;;0.30;0.30;;;10.30;99.90;;;;;;5037084;28;20206;-96
2022/11/05 02:57:15;;;;;;;0.30;0.30;;;10.20;99.90;;;;;;5019592;28;20255;-94
2022/11/05 02:59:49;;;;;;;0.50;0.50;;;10.20;99.90;;;;;;5021424;28;20199;-93
2022/11/05 03:06:15;;;;;;;0.40;0.40;;;10.30;99.90;;;;;;5078996;22;20277;-95
2022/11/05 03:09:14;;;;;;;0.50;0.50;;;10.30;99.90;;;;;;5242767;22;20305;-95
2022/11/05 03:12:16;;;;;;;0.50;0.50;;;10.20;99.90;;;;;;5122006;22;20255;-95
2022/11/05 03:14:55;;;;;;;1.00;0.60;;;10.30;99.90;;;;;;5225850;22;20208;-94
2022/11/05 03:17:50;;;;;;;0.50;0.50;;;10.20;99.90;;;;;;5177928;22;20246;-94
2022/11/05 03:20:51;;;;;;;0.60;0.60;;;10.20;99.90;;;;;;5055665;28;20198;-95
2022/11/05 03:23:47;;;;;;;0.53;0.53;;;10.30;99.90;;;;;;5058516;28;20191;-92
2022/11/05 03:26:24;;;;;;;0.50;0.50;;;10.30;99.90;;;;;;5059903;28;20223;-93
2022/11/05 03:29:06;;;;;;;0.47;0.47;;;10.30;99.90;;;;;;5026004;28;20196;-94
2022/11/05 03:31:39;;;;;;;0.53;0.53;;;10.20;99.90;;;;;;5059796;28;20199;-94
2022/11/05 03:34:16;;;;;;;0.50;0.50;;;10.20;99.90;;;;;;5074629;22;20218;-94
2022/11/05 03:36:52;;;;;;;0.50;0.50;;;10.30;99.90;;;;;;5090130;22;20223;-93
2022/11/05 03:39:29;;;;;;;0.30;0.30;;;10.20;99.90;;;;;;5057687;28;20286;-93
2022/11/05 03:42:04;;;;;;;0.37;0.37;;;10.20;99.90;;;;;;5049355;28;20324;-94
2022/11/05 03:44:50;;;;;;;0.70;0.70;;;10.30;99.90;;;;;;5055482;28;20158;-94
2022/11/05 03:47:37;;;;;;;0.50;0.50;;;10.30;99.90;;;;;;5041568;28;20229;-94
2022/11/05 03:50:41;;;;;;;0.60;0.60;;;10.20;99.90;;;;;;5030152;28;20192;-94
2022/11/05 03:53:24;;;;;;;0.77;0.53;;;10.20;99.90;;;;;;5088017;22;20248;-96
2022/11/05 03:56:20;;;;;;;0.73;0.47;;;10.20;99.90;;;;;;5042800;28;20209;-93
2022/11/05 03:58:51;;;;;;;0.30;0.30;;;10.20;99.90;;;;;;5122436;22;20262;-95
2022/11/05 04:01:44;;;;;;;0.50;0.50;;;10.20;99.90;;;;;;5039192;28;20268;-94
2022/11/05 04:04:10;;;;;;;0.77;0.50;;;10.20;99.90;;;;;;5034126;28;20183;-94
2022/11/05 04:15:11;;;;;;;0.50;0.50;;;10.20;99.90;;;;;;5029180;28;20232;-93
2022/11/05 04:17:44;;;;;;;0.67;0.67;;;10.10;99.90;;;;;;5010374;28;20233;-94
2022/11/05 04:26:27;;;;;;;0.60;0.60;;;10.20;99.90;;;;;;4993954;28;20228;-94
2022/11/05 04:31:59;;;;;;;0.70;0.70;;;10.10;99.90;;;;;;5151937;22;20265;-93
2022/11/05 04:34:40;;;;;;;0.80;0.80;;;10.20;99.90;;;;;;5058503;28;20182;-93
2022/11/05 04:37:06;;;;;;;1.13;0.67;;;10.20;99.90;;;;;;5057090;28;20731;-93
2022/11/05 04:39:35;;;;;;;0.90;0.60;;;10.20;99.90;;;;;;5058184;28;20196;-91
2022/11/05 04:42:08;;;;;;;0.90;0.90;;;10.30;99.90;;;;;;5059379;28;20182;-94
2022/11/05 04:44:57;;;;;;;0.63;0.60;;;10.30;99.90;;;;;;5061344;28;20180;-92
2022/11/05 04:47:30;;;;;;;0.50;0.50;;;10.30;99.90;;;;;;5025057;28;20254;-93
2022/11/05 04:50:02;;;;;;;0.40;0.40;;;10.30;99.90;;;;;;5126294;22;20235;-94
2022/11/05 04:55:16;;;;;;;0.43;0.43;;;10.30;99.90;;;;;;5051888;23;20219;-95
2022/11/05 04:57:51;;;;;;;0.60;0.60;;;10.30;99.90;;;;;;5054460;28;20238;-94
2022/11/05 05:00:25;;;;;;;0.50;0.50;;;10.30;99.90;;;;;;5071045;28;20688;-94
2022/11/05 05:03:15;;;;;;;0.60;0.60;;;10.30;99.90;;;;;;5032645;28;20221;-94
2022/11/05 05:05:42;;;;;;;0.50;0.50;;;10.30;99.90;;;;;;5032012;28;20175;-94
2022/11/05 05:08:14;;;;;;;0.80;0.80;;;10.30;99.90;;;;;;5029132;28;20192;-94
2022/11/05 05:10:41;;;;;;;0.60;0.60;;;10.30;99.90;;;;;;5030418;28;20208;-94
2022/11/05 05:13:30;;;;;;;0.60;0.60;;;10.20;99.90;;;;;;5048598;28;20191;-94
2022/11/05 05:15:57;;;;;;;0.60;0.60;;;10.20;99.90;;;;;;5056464;28;20251;-94
2022/11/05 05:18:29;;;;;;;0.60;0.60;;;10.30;99.90;;;;;;5064666;22;20226;-95
2022/11/05 05:23:57;;;;;;;0.77;0.70;;;10.20;99.90;;;;;;5083190;22;20226;-94
2022/11/05 05:26:25;;;;;;;1.10;1.10;;;10.20;99.90;;;;;;5049866;28;20203;-94
2022/11/05 05:28:52;;;;;;;0.73;0.73;;;10.10;99.90;;;;;;5084177;22;20232;-94
2022/11/05 05:31:25;;;;;;;2.47;0.70;;;10.10;99.90;;;;;;5045743;28;20223;-95
2022/11/05 05:34:05;;;;;;;0.70;0.70;;;10.10;99.90;;;;;;5032328;28;20212;-94
2022/11/05 05:36:34;;;;;;;1.53;0.80;;;10.10;99.90;;;;;;5025493;28;20188;-95
2022/11/05 05:39:05;;;;;;;0.50;0.50;;;10.10;99.90;;;;;;5028397;28;20255;-94
2022/11/05 05:41:36;;;;;;;0.90;0.83;;;10.10;99.90;;;;;;5029475;28;20173;-94
2022/11/05 05:44:07;;;;;;;0.90;0.90;;;10.10;99.90;;;;;;5012151;28;20196;-94
2022/11/05 05:46:49;;;;;;;0.70;0.70;;;10.10;99.90;;;;;;5028613;28;20183;-95
2022/11/05 05:49:36;;;;;;;0.97;0.97;;;10.10;99.90;;;;;;5030037;28;20188;-94
2022/11/05 05:52:47;;;;;;;1.00;1.00;;;10.20;99.90;;;;;;5019198;28;20224;-94
2022/11/05 05:58:19;;;;;;;0.80;0.80;;;10.10;99.90;;;;;;5015442;28;20220;-95
2022/11/05 06:00:45;;;;;;;0.90;0.90;;;10.10;99.90;;;;;;4981022;28;20180;-94
2022/11/05 06:03:31;;;;;;;0.90;0.90;;;10.00;99.90;;;;;;5091386;23;20223;-95
2022/11/05 06:06:11;;;;;;;1.10;1.10;;;10.10;99.90;;;;;;5037687;28;20168;-94
2022/11/05 06:08:38;;;;;;;0.90;0.90;;;10.10;99.90;;;;;;5035106;28;20180;-94
2022/11/05 06:11:07;;;;;;;1.30;1.30;;;10.10;99.90;;;;;;5035054;28;20215;-95
2022/11/05 06:13:40;;;;;;;1.20;1.20;;;10.10;99.90;;;;;;5032792;28;20157;-93
2022/11/05 06:18:35;;;;;;;0.80;0.80;;;10.10;99.90;;;;;;5061546;23;20239;-94
2022/11/05 06:21:18;;;;;;;1.00;1.00;;;10.20;99.90;;;;;;5040510;28;20184;-94
2022/11/05 06:23:48;;;;;;;1.20;1.10;;;10.20;99.90;;;;;;5029946;28;20219;-95
2022/11/05 06:26:22;;;;;;;0.80;0.80;;;10.20;99.90;;;;;;5034973;28;20185;-94
2022/11/05 06:28:49;;;;;;;2.40;2.30;;;10.10;99.90;;;;;;5033423;28;20234;-94
2022/11/05 06:31:16;;;;;;;2.00;1.90;;;10.20;99.90;;;;;;5031755;28;20645;-94
2022/11/05 06:33:46;;;;;;;1.20;1.20;;;10.20;99.90;;;;;;5051340;28;20236;-93
2022/11/05 06:36:15;;;;;;;0.93;0.93;;;10.20;99.90;;;;;;5034629;28;20200;-94
2022/11/05 06:41:46;;;;;;;1.80;1.70;;;10.40;99.90;;;;;;5228683;22;20235;-94
2022/11/05 06:44:30;;;;;;;0.90;0.90;;;10.40;99.90;;;;;;5190453;22;20296;-94
2022/11/05 06:47:00;;;;;;;1.13;1.13;;;10.50;99.90;;;;;;5037966;28;20249;-93
2022/11/05 06:49:27;;;;;;;1.00;1.00;;;10.50;99.90;;;;;;5040740;28;20201;-93
2022/11/05 06:51:58;;;;;;;1.17;1.10;;;10.50;99.90;;;;;;5037438;28;20208;-94
2022/11/05 06:54:46;;;;;;;1.20;1.20;;;10.60;99.90;;;;;;5072354;22;20230;-94
2022/11/05 06:57:28;;;;;;;1.40;1.30;;;10.70;99.90;;;;;;5057430;28;20240;-93
2022/11/05 06:59:57;;;;;;;1.13;1.13;;;10.70;99.90;;;;;;5049879;23;20239;-93
2022/11/05 07:02:46;;;;;;;1.77;1.67;;;10.80;99.90;;;;;;5043727;28;20184;-92
2022/11/05 07:05:15;;;;;;;1.10;1.10;;;10.90;99.90;;;;;;5019295;28;20201;-96
2022/11/05 07:07:44;;;;;;;1.50;1.40;;;11.00;99.90;;;;;;5016207;28;20192;-94
2022/11/05 07:10:20;;;;;;;1.30;1.30;;;11.00;99.90;;;;;;5032024;28;20194;-94
2022/11/05 07:12:49;;;;;;;1.20;1.20;;;11.10;99.90;;;;;;5036355;28;20240;-92
2022/11/05 07:25:02;;;;;;;1.37;1.27;;;11.30;99.90;;;;;;5035780;28;20249;-92
2022/11/05 07:27:28;;;;;;;1.10;1.10;;;11.40;99.90;;;;;;5032915;28;20253;-93
2022/11/05 07:30:00;;;;;;;1.33;1.27;;;11.50;99.90;;;;;;5043590;28;20216;-93
2022/11/05 07:32:35;;;;;;;3.20;1.30;;;11.50;99.90;;;;;;5042369;28;20212;-95
2022/11/05 07:35:09;;;;;;;1.50;1.40;;;11.60;99.90;;;;;;5025478;28;20188;-94
2022/11/05 07:37:52;;;;;;;1.53;1.10;;;11.70;99.90;;;;;;5039910;28;20224;-95
2022/11/05 07:40:28;;;;;;;1.20;1.20;;;11.80;99.90;;;;;;5064023;23;20228;-94
2022/11/05 07:43:00;;;;;;;1.13;1.10;;;11.90;99.90;;;;;;5051810;28;20163;-94
2022/11/05 07:45:49;;;;;;;1.00;1.00;;;12.00;99.90;;;;;;5033599;28;20182;-93
2022/11/05 07:48:20;;;;;;;1.40;1.30;;;12.10;99.90;;;;;;5024245;28;20248;-95
2022/11/05 07:50:56;;;;;;;1.33;1.33;;;12.20;99.90;;;;;;5034669;28;20244;-94
2022/11/05 07:53:22;;;;;;;1.17;1.17;;;12.20;99.90;;;;;;5021519;28;20199;-93
2022/11/05 07:55:48;;;;;;;1.27;1.27;;;12.20;99.90;;;;;;5014812;28;20180;-94
2022/11/05 07:58:16;;;;;;;3.50;1.50;;;12.20;99.90;;;;;;5047664;28;20191;-93
2022/11/05 08:00:53;;;;;;;1.30;1.30;;;12.30;99.90;;;;;;5031523;28;20172;-93
2022/11/05 08:03:25;;;;;;;1.40;1.30;;;12.30;99.90;;;;;;5046524;28;20203;-93
2022/11/05 08:05:52;;;;;;;1.23;1.13;;;12.30;99.90;;;;;;5028377;28;20177;-93
2022/11/05 08:08:20;;;;;;;1.13;0.90;;;12.40;99.90;;;;;;5025612;28;20188;-92
2022/11/05 08:10:48;;;;;;;0.90;0.90;;;12.40;99.90;;;;;;5043378;28;20209;-93
2022/11/05 08:13:19;;;;;;;1.33;1.23;;;12.50;99.90;;;;;;5024376;28;20275;-93
2022/11/05 08:15:46;;;;;;;1.13;1.13;;;12.40;99.90;;;;;;5023761;28;20207;-94
2022/11/05 08:18:18;;;;;;;0.97;0.97;;;12.40;99.90;;;;;;4997445;28;20709;-93
2022/11/05 08:20:47;;;;;;;1.80;1.00;;;12.50;99.90;;;;;;5005799;28;20236;-94
2022/11/05 08:23:17;;;;;;;1.00;1.00;;;12.50;99.90;;;;;;5016684;28;20214;-94
2022/11/05 08:25:44;;;;;;;1.07;0.97;;;12.50;99.90;;;;;;5000844;28;20176;-93
2022/11/05 08:28:11;;;;;;;1.00;1.00;;;12.40;99.90;;;;;;5017112;28;20269;-93
2022/11/05 08:30:40;;;;;;;1.33;0.90;;;12.40;99.90;;;;;;5017892;28;20274;-94
2022/11/05 08:33:08;;;;;;;0.80;0.80;;;12.50;99.90;;;;;;5039340;23;20291;-94
2022/11/05 08:35:39;;;;;;;0.87;0.87;;;12.50;99.90;;;;;;5038729;28;20179;-93
2022/11/05 08:38:16;;;;;;;0.60;0.60;;;12.60;99.90;;;;;;5056311;28;20180;-94
2022/11/05 08:41:09;;;;;;;0.53;0.53;;;12.50;99.90;;;;;;5056325;28;20159;-94
2022/11/05 08:43:35;;;;;;;1.53;0.80;;;12.50;99.90;;;;;;5041044;28;20180;-95
2022/11/05 08:46:05;;;;;;;0.90;0.90;;;12.50;99.80;;;;;;5055369;28;20169;-94
2022/11/05 08:48:33;;;;;;;1.67;0.80;;;12.50;99.90;;;;;;5005491;28;20171;-94
2022/11/05 08:51:00;;;;;;;0.60;0.60;;;12.50;99.90;;;;;;5034247;28;20213;-95
2022/11/05 08:53:27;;;;;;;0.90;0.90;;;12.50;99.90;;;;;;5020977;28;20203;-95
2022/11/05 08:55:57;;;;;;;0.73;0.73;;;12.50;99.90;;;;;;5038447;28;20181;-95
2022/11/05 08:58:48;;;;;;;0.80;0.80;;;12.60;99.90;;;;;;5004955;28;20177;-93
2022/11/05 09:01:23;;;;;;;0.90;0.90;;;12.60;99.90;;;;;;5037368;23;20236;-94
2022/11/05 09:03:51;;;;;;;0.60;0.60;;;12.60;99.90;;;;;;4995720;28;20184;-95
2022/11/05 09:09:16;;;;;;;0.77;0.77;;;12.60;99.70;;;;;;5140529;22;20238;-93
2022/11/05 09:11:50;;;;;;;0.67;0.67;;;12.70;99.90;;;;;;5031978;28;20255;-94
2022/11/05 09:17:23;;;;;;;0.80;0.80;;;12.70;99.20;;;;;;5215717;22;20203;-94
2022/11/05 09:20:16;;;;;;;0.80;0.80;;;12.60;99.40;;;;;;5048814;22;20238;-93
2022/11/05 09:22:47;;;;;;;1.70;0.77;;;12.60;99.80;;;;;;5030908;28;20215;-94
2022/11/05 09:25:23;;;;;;;0.70;0.70;;;12.70;99.40;;;;;;5051018;23;20234;-93
2022/11/05 09:28:07;;;;;;;0.90;0.90;;;12.60;99.30;;;;;;5032673;28;20195;-94
2022/11/05 09:30:42;;;;;;;0.60;0.60;;;12.70;99.10;;;;;;5030546;28;20199;-94
2022/11/05 09:33:31;;;;;;;0.80;0.80;;;12.70;99.30;;;;;;5064155;23;20723;-95
2022/11/05 09:36:45;;;;;;;1.33;0.90;;;12.80;99.20;;;;;;5044791;23;20243;-94
2022/11/05 09:39:18;;;;;;;0.73;0.73;;;12.80;99.40;;;;;;4934044;29;20218;-92
2022/11/05 09:41:47;;;;;;;0.67;0.57;;;12.90;99.30;;;;;;4936952;29;20188;-94
2022/11/05 09:44:33;;;;;;;0.63;0.63;;;13.00;99.00;;;;;;5170086;23;20253;-93
2022/11/05 09:47:04;;;;;;;0.70;0.70;;;13.10;98.80;;;;;;5018652;23;20243;-95
2022/11/05 09:49:54;;;;;;;0.60;0.60;;;13.10;98.90;;;;;;5008616;28;20210;-94
2022/11/05 09:52:24;;;;;;;1.00;1.00;;;13.10;98.90;;;;;;5030953;28;20267;-94
2022/11/05 09:54:52;;;;;;;0.60;0.60;;;13.00;99.20;;;;;;5031712;28;20243;-95
2022/11/05 09:57:27;;;;;;;0.70;0.70;;;13.00;98.70;;;;;;5029767;28;20180;-94
2022/11/05 10:00:01;;;;;;;0.67;0.67;;;12.90;99.00;;;;;;5030644;28;20185;-93
2022/11/05 10:02:50;;;;;;;0.60;0.60;;;12.90;99.10;;;;;;5035646;28;20187;-95
2022/11/05 10:05:17;;;;;;;1.07;0.70;;;12.90;99.00;;;;;;5075208;23;20241;-94
2022/11/05 10:08:10;;;;;;;0.60;0.60;;;12.80;99.20;;;;;;5057424;28;20232;-96
2022/11/05 10:10:57;;;;;;;0.80;0.80;;;12.90;99.20;;;;;;5023869;28;20189;-93
2022/11/05 10:13:50;;;;;;;0.80;0.80;;;12.90;99.10;;;;;;5041735;28;20160;-93
2022/11/05 10:16:44;;;;;;;0.70;0.70;;;12.90;99.10;;;;;;5060808;28;20173;-96
2022/11/05 10:19:50;;;;;;;0.73;0.73;;;13.00;99.10;;;;;;5042309;28;20212;-96
2022/11/05 10:23:09;;;;;;;0.70;0.70;;;13.10;98.90;;;;;;5269416;23;20250;-94
2022/11/05 10:26:05;;;;;;;0.67;0.67;;;13.10;99.00;;;;;;4905101;29;20198;-95
2022/11/05 10:34:02;;;;;;;0.50;0.50;;;13.00;99.10;;;;;;5278651;22;20221;-95
2022/11/05 10:36:32;;;;;;;0.70;0.70;;;12.90;98.80;;;;;;5040012;28;20272;-94
2022/11/05 10:42:55;;;;;;;0.87;0.57;;;13.00;98.80;;;;;;5198601;23;20225;-94
2022/11/05 10:46:15;;;;;;;0.63;0.63;;;12.90;98.60;;;;;;5301872;22;20240;-94
2022/11/05 10:49:37;;;;;;;1.00;0.77;;;13.00;98.80;;;;;;5016312;28;20201;-93
2022/11/05 10:53:01;;;;;;;0.50;0.50;;;13.00;98.90;;;;;;5015409;28;20245;-96
2022/11/05 10:56:00;;;;;;;0.77;0.77;;;13.10;98.60;;;;;;5055057;23;20175;-95
2022/11/05 10:59:10;;;;;;;1.10;1.00;;;13.20;98.50;;;;;;5035791;28;20221;-96
2022/11/05 11:08:05;;;;;;;0.50;0.50;;;13.40;98.40;;;;;;5427433;23;20231;-94
2022/11/05 11:11:19;;;;;;;0.57;0.57;;;13.50;98.20;;;;;;5025344;23;20225;-96
2022/11/05 11:34:53;;;;;;;0.70;0.70;;;13.90;98.00;;;;;;5056655;28;20254;-96
2022/11/05 11:37:36;;;;;;;1.03;0.90;;;13.90;97.90;;;;;;4979206;28;20195;-95
2022/11/05 11:40:35;;;;;;;0.40;0.40;;;14.10;98.10;;;;;;5039611;28;20207;-94
2022/11/05 11:43:13;;;;;;;0.40;0.40;;;14.10;97.60;;;;;;5039922;28;20172;-95
2022/11/05 11:46:03;;;;;;;0.60;0.60;;;14.00;97.30;;;;;;5025099;28;20275;-94
2022/11/05 11:48:44;;;;;;;0.53;0.50;;;13.80;97.40;;;;;;5056398;28;20200;-93
2022/11/05 11:51:35;;;;;;;0.67;0.67;;;13.80;97.50;;;;;;5098149;23;20308;-93
2022/11/05 11:54:03;;;;;;;0.70;0.70;;;13.90;97.70;;;;;;4994962;28;20209;-95
2022/11/05 11:56:55;;;;;;;0.60;0.60;;;13.90;97.90;;;;;;5022871;23;20214;-94
2022/11/05 11:59:27;;;;;;;1.43;0.87;;;13.90;97.80;;;;;;5066366;22;20234;-95
2022/11/05 12:02:32;;;;;;;0.60;0.60;;;14.00;97.70;;;;;;5032241;28;20224;-94
2022/11/05 12:05:41;;;;;;;0.53;0.53;;;14.00;97.40;;;;;;5026747;28;20177;-95
2022/11/05 12:08:16;;;;;;;0.87;0.87;;;14.00;97.70;;;;;;5051687;28;20184;-95
2022/11/05 12:11:07;;;;;;;0.90;0.90;;;14.10;97.50;;;;;;5053655;28;20164;-96
2022/11/05 12:13:44;;;;;;;0.50;0.50;;;14.10;97.60;;;;;;5042229;28;20173;-94
2022/11/05 12:16:19;;;;;;;0.60;0.60;;;14.20;97.70;;;;;;5038504;28;20187;-94
2022/11/05 12:18:52;;;;;;;1.07;0.53;;;14.20;97.50;;;;;;5030621;28;20176;-93
2022/11/05 12:21:33;;;;;;;0.40;0.40;;;14.20;97.40;;;;;;5031588;28;20169;-94
2022/11/05 12:24:21;;;;;;;0.37;0.37;;;14.00;97.40;;;;;;5014721;28;20204;-94
2022/11/05 12:27:19;;;;;;;0.50;0.50;;;13.90;97.30;;;;;;5011937;28;20216;-93
2022/11/05 12:30:19;;;;;;;0.60;0.60;;;13.80;97.10;;;;;;4987922;28;20221;-94
2022/11/05 12:33:25;;;;;;;0.53;0.50;;;13.80;97.50;;;;;;4934988;29;20230;-95
2022/11/05 12:36:14;;;;;;;0.40;0.40;;;13.80;97.10;;;;;;4965313;29;20618;-96
2022/11/05 12:38:54;;;;;;;0.73;0.40;;;13.80;97.20;;;;;;4951863;29;20187;-93
2022/11/05 12:41:35;;;;;;;0.40;0.40;;;13.70;97.40;;;;;;4950818;29;20182;-95
2022/11/05 12:44:41;;;;;;;0.33;0.33;;;13.70;97.00;;;;;;4951096;29;20190;-93
2022/11/05 12:47:43;;;;;;;0.40;0.40;;;13.50;97.30;;;;;;4961919;29;20214;-94
2022/11/05 12:50:25;;;;;;;0.70;0.50;;;13.60;97.00;;;;;;4977224;29;20210;-95
2022/11/05 12:53:19;;;;;;;0.40;0.40;;;13.60;97.10;;;;;;4960418;29;20210;-96
2022/11/05 12:56:21;;;;;;;0.53;0.53;;;13.50;97.40;;;;;;4986505;28;20205;-96
2022/11/05 12:58:55;;;;;;;0.40;0.40;;;13.60;97.50;;;;;;5022458;23;20258;-95
2022/11/05 13:01:36;;;;;;;0.60;0.60;;;13.60;97.50;;;;;;5032578;28;20239;-93
2022/11/05 13:04:14;;;;;;;0.63;0.60;;;13.60;97.10;;;;;;5032976;28;20174;-96
2022/11/05 13:06:51;;;;;;;0.70;0.70;;;13.60;97.20;;;;;;5025385;28;20196;-95
2022/11/05 13:09:34;;;;;;;0.50;0.50;;;13.60;97.30;;;;;;5024171;28;20177;-95
2022/11/05 13:12:15;;;;;;;0.60;0.60;;;13.60;97.40;;;;;;5030540;28;20203;-96
2022/11/05 13:14:51;;;;;;;0.40;0.40;;;13.60;97.20;;;;;;5026470;28;20180;-96
2022/11/05 13:17:48;;;;;;;0.50;0.50;;;13.70;97.30;;;;;;5023076;28;20149;-94
2022/11/05 13:20:27;;;;;;;0.50;0.50;;;13.60;97.00;;;;;;5035993;28;20157;-96
2022/11/05 13:23:22;;;;;;;0.47;0.47;;;13.60;96.80;;;;;;5038511;28;20189;-93
2022/11/05 13:26:50;;;;;;;0.37;0.37;;;13.50;97.10;;;;;;5033627;28;20215;-94
2022/11/05 13:29:42;;;;;;;0.50;0.50;;;13.40;97.20;;;;;;4995019;28;20715;-92
2022/11/05 13:32:33;;;;;;;0.77;0.77;;;13.40;97.10;;;;;;4980508;28;20225;-96
2022/11/05 13:35:13;;;;;;;0.83;0.83;;;13.30;97.30;;;;;;5025837;28;20177;-96
2022/11/05 13:41:07;;;;;;;0.40;0.40;;;13.30;97.20;;;;;;5028576;28;20695;-94
2022/11/05 13:44:18;;;;;;;0.87;0.70;;;13.30;96.80;;;;;;5028041;28;20210;-94
2022/11/05 13:47:37;;;;;;;0.70;0.70;;;13.30;96.80;;;;;;5033356;28;20198;-96
2022/11/05 13:50:58;;;;;;;0.50;0.50;;;13.40;97.00;;;;;;5032754;28;20247;-94
2022/11/05 13:54:25;;;;;;;0.47;0.47;;;13.40;96.70;;;;;;5032153;28;20183;-96
2022/11/05 13:57:27;;;;;;;0.60;0.60;;;13.40;97.00;;;;;;4998063;28;20181;-93
2022/11/05 14:00:19;;;;;;;0.60;0.60;;;13.40;96.60;;;;;;4998772;28;20230;-92
2022/11/05 14:03:16;;;;;;;0.47;0.47;;;13.40;96.40;;;;;;5001398;28;20186;-93
2022/11/05 14:06:22;;;;;;;0.50;0.50;;;13.30;96.50;;;;;;5011594;28;20186;-92
2022/11/05 14:09:10;;;;;;;0.70;0.70;;;13.20;96.50;;;;;;4998673;28;20189;-92
2022/11/05 14:11:48;;;;;;;0.60;0.60;;;13.10;96.50;;;;;;4965195;28;20263;-93
2022/11/05 14:14:26;;;;;;;0.57;0.57;;;13.10;96.60;;;;;;4986183;28;20168;-92
2022/11/05 14:17:26;;;;;;;0.70;0.70;;;13.10;96.40;;;;;;5012808;28;20255;-93
2022/11/05 14:20:24;;;;;;;0.80;0.80;;;13.10;96.40;;;;;;5012456;28;20180;-92
2022/11/05 14:22:51;;;;;;;1.03;0.80;;;13.00;96.50;;;;;;4995213;28;20194;-93
2022/11/05 14:25:24;;;;;;;0.57;0.57;;;13.00;96.50;;;;;;4976272;28;20196;-94
2022/11/05 14:27:53;;;;;;;0.83;0.80;;;13.00;96.40;;;;;;4992837;28;20181;-92
2022/11/05 14:30:38;;;;;;;0.70;0.70;;;12.90;96.30;;;;;;4979102;28;20192;-92
2022/11/05 14:33:12;;;;;;;0.60;0.60;;;12.90;96.10;;;;;;4979631;28;20270;-92
2022/11/05 14:35:38;;;;;;;0.60;0.60;;;12.90;96.40;;;;;;4977009;28;20172;-91
2022/11/05 14:38:26;;;;;;;0.80;0.80;;;12.80;96.30;;;;;;4996380;23;20576;-87
2022/11/05 14:41:02;;;;;;;0.77;0.77;;;12.80;97.30;;;;;;5023782;28;20260;-88
2022/11/05 14:43:32;;;;;;;0.60;0.60;;;12.80;97.10;;;;;;5029052;28;20241;-90
2022/11/05 14:46:05;;;;;;;0.70;0.70;;;12.90;96.50;;;;;;5046864;23;20233;-91
2022/11/05 14:50:59;;;;;;;0.90;0.90;;;12.90;96.70;;;;;;5051344;22;20220;-91
2022/11/05 14:53:38;;;;;;;0.80;0.80;;;12.90;96.50;;;;;;5061229;28;20177;-94
2022/11/05 14:56:15;;;;;;;0.70;0.70;;;12.80;96.50;;;;;;5056932;28;20793;-96
2022/11/05 14:58:42;;;;;;;0.77;0.60;;;12.80;96.50;;;;;;5029233;28;20184;-94
2022/11/05 15:30:17;;;;;;;0.80;0.80;;;12.20;96.30;;;;;;5242473;23;20240;-95
2022/11/05 15:32:44;;;;;;;1.07;1.07;;;12.20;96.30;;;;;;5022321;28;20208;-96
2022/11/05 15:35:27;;;;;;;2.10;1.90;;;12.10;96.30;;;;;;5024116;28;20689;-95
2022/11/05 15:37:56;;;;;;;1.80;1.70;;;12.10;96.30;;;;;;5037461;28;20196;-95
2022/11/05 15:40:31;;;;;;;0.90;0.90;;;12.10;96.20;;;;;;5040596;28;20188;-91
2022/11/05 15:43:19;;;;;;;0.83;0.83;;;12.10;96.30;;;;;;5047197;28;20177;-94
2022/11/05 15:46:24;;;;;;;0.73;0.73;;;12.10;96.40;;;;;;5055353;28;20186;-92
2022/11/05 15:48:58;;;;;;;0.97;0.97;;;12.00;96.40;;;;;;5050718;28;20180;-93
2022/11/05 15:51:29;;;;;;;0.90;0.90;;;11.90;96.50;;;;;;5052837;28;20242;-96
2022/11/05 15:53:59;;;;;;;1.00;1.00;;;12.00;96.70;;;;;;5037169;28;20180;-95
2022/11/05 15:56:38;;;;;;;1.17;1.03;;;11.90;96.60;;;;;;5037906;28;20174;-93
2022/11/05 15:59:12;;;;;;;1.00;1.00;;;11.80;96.70;;;;;;5037926;28;20180;-92
2022/11/05 16:01:55;;;;;;;1.30;1.20;;;11.90;96.60;;;;;;5024976;28;20195;-95
2022/11/05 16:04:31;;;;;;;3.43;1.40;;;11.80;96.80;;;;;;5050290;28;20161;-93
2022/11/05 16:07:00;;;;;;;1.57;1.47;;;11.80;96.80;;;;;;5049493;28;20702;-96
2022/11/05 16:09:33;;;;;;;1.27;1.27;;;11.80;96.90;;;;;;5050175;28;20195;-93
2022/11/05 16:12:19;;;;;;;1.20;1.20;;;11.70;96.80;;;;;;5033302;28;20204;-94
2022/11/05 16:15:15;;;;;;;1.90;1.80;;;11.70;96.90;;;;;;5055893;28;20269;-93
2022/11/05 16:17:58;;;;;;;1.93;1.03;;;11.70;97.10;;;;;;5031070;28;20251;-96
2022/11/05 16:20:27;;;;;;;1.00;1.00;;;11.70;96.90;;;;;;5024012;28;20654;-92
2022/11/05 16:22:56;;;;;;;1.20;1.20;;;11.60;97.00;;;;;;5027729;28;20524;-95
2022/11/05 16:25:37;;;;;;;1.63;1.00;;;11.70;96.80;;;;;;5030804;28;20181;-92
2022/11/05 16:28:04;;;;;;;1.00;1.00;;;11.70;97.00;;;;;;5040233;28;20195;-92